Time;durP1;ratioP1;P1;durP2;ratioP2;P2;SDS_P1;SDS_P2;PMS_P1;PMS_P2;Temp;Humidity;BMP_temperature;BMP_pressure;BME280_temperature;BME280_humidity;BME280_pressure;Samples;Min_cycle;Max_cycle;Signal;HPM_P1;HPM_P2
2022/05/31 00:01:49;;;;;;;11.73;6.18;;;7.70;99.90;;;;;;5055885;28;20055;-79
2022/05/31 00:04:15;;;;;;;12.20;5.68;;;7.70;99.90;;;;;;5055889;28;20049;-79
2022/05/31 00:06:42;;;;;;;15.02;6.22;;;7.70;99.90;;;;;;5055614;28;20159;-80
2022/05/31 00:09:08;;;;;;;13.15;6.10;;;7.70;99.90;;;;;;5055737;28;20051;-79
2022/05/31 00:11:35;;;;;;;14.75;6.22;;;7.70;99.90;;;;;;5055645;28;20400;-79
2022/05/31 00:14:02;;;;;;;17.05;6.47;;;7.70;99.90;;;;;;5055688;28;20045;-79
2022/05/31 00:16:28;;;;;;;14.48;6.78;;;7.70;99.90;;;;;;5055165;28;20454;-79
2022/05/31 00:18:53;;;;;;;10.38;6.22;;;7.80;99.90;;;;;;5055581;28;20041;-79
2022/05/31 00:21:19;;;;;;;13.88;6.50;;;7.70;99.90;;;;;;5055193;28;20476;-80
2022/05/31 00:23:45;;;;;;;14.05;5.97;;;7.70;99.90;;;;;;5055420;28;20033;-79
2022/05/31 00:26:11;;;;;;;13.90;6.45;;;7.70;99.90;;;;;;5054107;28;20484;-80
2022/05/31 00:28:36;;;;;;;11.90;5.75;;;7.70;99.90;;;;;;5055341;28;20045;-80
2022/05/31 00:31:03;;;;;;;12.70;6.13;;;7.70;99.90;;;;;;5053948;28;20040;-79
2022/05/31 00:33:29;;;;;;;11.82;6.50;;;7.80;99.90;;;;;;5055103;28;20493;-80
2022/05/31 00:35:55;;;;;;;15.65;6.72;;;7.80;99.90;;;;;;5055180;28;20581;-79
2022/05/31 00:38:22;;;;;;;13.40;6.50;;;7.80;99.90;;;;;;5053955;28;20057;-79
2022/05/31 00:40:47;;;;;;;15.65;7.63;;;7.80;99.90;;;;;;5053824;28;20190;-80
2022/05/31 00:43:20;;;;;;;15.70;7.30;;;7.90;99.90;;;;;;5053653;28;20044;-80
2022/05/31 00:46:05;;;;;;;13.90;7.33;;;7.90;99.90;;;;;;5055192;28;20037;-80
2022/05/31 00:48:35;;;;;;;16.80;7.18;;;7.90;99.90;;;;;;5053448;28;20056;-80
2022/05/31 00:51:16;;;;;;;16.25;7.28;;;7.90;99.90;;;;;;5053700;28;20048;-79
2022/05/31 00:53:56;;;;;;;13.63;7.53;;;7.90;99.90;;;;;;5054903;28;20053;-79
2022/05/31 00:56:25;;;;;;;18.15;7.80;;;8.00;99.90;;;;;;5053546;28;20049;-79
2022/05/31 00:59:17;;;;;;;20.98;8.48;;;8.00;99.90;;;;;;5053725;28;20044;-79
2022/05/31 01:01:47;;;;;;;14.75;6.95;;;8.00;99.90;;;;;;5047928;28;20057;-79
2022/05/31 01:04:14;;;;;;;18.45;9.43;;;8.00;99.90;;;;;;5054513;28;20047;-79
2022/05/31 01:06:40;;;;;;;18.30;8.82;;;8.10;99.90;;;;;;5054539;28;20060;-79
2022/05/31 01:09:06;;;;;;;23.73;9.73;;;8.10;99.90;;;;;;5054496;28;20044;-79
2022/05/31 01:11:38;;;;;;;20.45;10.15;;;8.10;99.90;;;;;;5054480;28;20052;-79
2022/05/31 01:14:05;;;;;;;19.33;9.50;;;8.10;99.90;;;;;;5054525;28;20121;-79
2022/05/31 01:16:30;;;;;;;23.30;9.57;;;8.10;99.90;;;;;;5054264;28;20502;-80
2022/05/31 01:18:57;;;;;;;27.65;10.57;;;8.20;99.90;;;;;;5053249;28;20060;-79
2022/05/31 01:21:22;;;;;;;21.88;10.48;;;8.20;99.90;;;;;;5054217;28;20504;-79
2022/05/31 01:24:04;;;;;;;21.20;10.27;;;8.20;99.90;;;;;;5054177;28;20044;-79
2022/05/31 01:26:55;;;;;;;25.93;12.20;;;8.30;99.90;;;;;;5054172;28;20052;-80
2022/05/31 01:29:30;;;;;;;25.30;11.70;;;8.30;99.90;;;;;;5053149;28;20041;-80
2022/05/31 01:31:59;;;;;;;21.50;11.85;;;8.30;99.90;;;;;;5054046;28;20071;-80
2022/05/31 01:34:37;;;;;;;22.55;12.18;;;8.30;99.90;;;;;;5053901;28;20097;-80
2022/05/31 01:37:05;;;;;;;28.92;13.00;;;8.40;99.90;;;;;;5053115;28;20106;-80
2022/05/31 01:39:42;;;;;;;32.83;13.85;;;8.40;99.90;;;;;;5052639;28;20114;-80
2022/05/31 01:42:24;;;;;;;29.77;13.63;;;8.50;99.90;;;;;;5054014;28;20209;-80
2022/05/31 01:44:58;;;;;;;32.93;14.30;;;8.50;99.90;;;;;;5052953;28;20045;-80
2022/05/31 01:47:24;;;;;;;32.75;15.10;;;8.50;99.90;;;;;;5053872;28;20485;-80
2022/05/31 01:49:53;;;;;;;32.40;15.05;;;8.50;99.90;;;;;;5053901;28;20083;-80
2022/05/31 01:52:20;;;;;;;27.58;14.30;;;8.60;99.90;;;;;;5053562;28;20117;-80
2022/05/31 01:54:47;;;;;;;39.25;16.75;;;8.60;99.90;;;;;;5053829;28;20033;-77
2022/05/31 01:57:15;;;;;;;31.10;15.40;;;8.60;99.90;;;;;;5053762;28;20047;-79
2022/05/31 01:59:56;;;;;;;30.13;15.38;;;8.70;99.90;;;;;;5053862;28;20120;-79
2022/05/31 02:02:21;;;;;;;27.48;14.40;;;8.70;99.90;;;;;;5052626;28;20140;-79
2022/05/31 02:04:47;;;;;;;32.60;14.68;;;8.70;99.90;;;;;;5053765;28;20123;-78
2022/05/31 02:07:22;;;;;;;29.38;14.73;;;8.70;99.90;;;;;;5053620;28;20037;-78
2022/05/31 02:09:50;;;;;;;24.90;13.02;;;8.70;99.90;;;;;;5053778;28;20048;-78
2022/05/31 02:12:18;;;;;;;27.65;13.25;;;8.70;99.90;;;;;;5052396;28;20052;-78
2022/05/31 02:14:44;;;;;;;24.08;12.80;;;8.80;99.90;;;;;;5052614;28;20061;-79
2022/05/31 02:17:10;;;;;;;23.35;12.38;;;8.80;99.90;;;;;;5052426;28;20056;-78
2022/05/31 02:19:36;;;;;;;23.73;12.00;;;8.80;99.90;;;;;;5053560;28;20044;-78
2022/05/31 02:22:06;;;;;;;21.75;11.60;;;8.80;99.90;;;;;;5052172;28;20131;-78
2022/05/31 02:24:32;;;;;;;22.67;12.00;;;8.70;99.90;;;;;;5053476;28;20391;-78
2022/05/31 02:26:58;;;;;;;21.45;11.65;;;8.80;99.90;;;;;;5052274;28;20041;-79
2022/05/31 02:29:28;;;;;;;21.00;11.05;;;8.80;99.90;;;;;;5053477;28;20135;-79
2022/05/31 02:31:56;;;;;;;24.27;10.50;;;8.80;99.90;;;;;;5052033;28;20400;-79
2022/05/31 02:34:24;;;;;;;19.17;10.77;;;8.80;99.90;;;;;;5052056;28;20045;-79
2022/05/31 02:36:51;;;;;;;20.50;10.93;;;8.80;99.90;;;;;;5052316;28;20045;-79
2022/05/31 02:39:17;;;;;;;19.33;11.00;;;8.80;99.90;;;;;;5053408;28;20060;-79
2022/05/31 02:41:43;;;;;;;19.02;10.85;;;8.90;99.90;;;;;;5053287;28;20044;-79
2022/05/31 02:44:09;;;;;;;21.48;11.45;;;8.90;99.90;;;;;;5054759;28;20041;-79
2022/05/31 02:46:35;;;;;;;22.17;10.73;;;8.90;99.90;;;;;;5056077;28;20080;-79
2022/05/31 02:49:02;;;;;;;18.02;10.80;;;8.90;99.90;;;;;;5056166;28;20518;-80
2022/05/31 02:51:27;;;;;;;17.83;10.77;;;8.90;99.90;;;;;;5055913;28;20060;-80
2022/05/31 02:53:53;;;;;;;18.67;9.98;;;8.90;99.90;;;;;;5055968;28;20404;-80
2022/05/31 02:56:19;;;;;;;16.77;11.05;;;8.90;99.90;;;;;;5056107;28;20056;-80
2022/05/31 02:58:45;;;;;;;20.67;10.60;;;8.90;99.90;;;;;;5057103;28;20045;-79
2022/05/31 03:01:35;;;;;;;17.80;11.20;;;8.90;99.90;;;;;;5057013;28;20191;-79
2022/05/31 03:04:01;;;;;;;14.93;9.55;;;9.00;99.90;;;;;;5055948;28;20049;-79
2022/05/31 03:06:27;;;;;;;15.77;9.93;;;9.00;99.90;;;;;;5056899;28;20067;-79
2022/05/31 03:08:53;;;;;;;17.33;9.15;;;8.90;99.90;;;;;;5056753;28;20072;-80
2022/05/31 03:11:36;;;;;;;15.43;9.65;;;8.90;99.90;;;;;;5055194;28;20041;-80
2022/05/31 03:14:10;;;;;;;15.38;9.80;;;8.90;99.90;;;;;;5055267;28;20053;-80
2022/05/31 03:16:41;;;;;;;15.93;9.02;;;9.00;99.90;;;;;;5055010;28;20045;-79
2022/05/31 03:19:10;;;;;;;15.75;9.57;;;9.00;99.90;;;;;;5054683;28;20053;-79
2022/05/31 03:21:47;;;;;;;14.65;9.77;;;9.00;99.90;;;;;;5054699;28;20041;-80
2022/05/31 03:24:23;;;;;;;15.25;9.70;;;9.00;99.90;;;;;;5053987;28;20060;-79
2022/05/31 03:26:52;;;;;;;13.95;9.18;;;9.00;99.90;;;;;;5056399;28;20048;-79
2022/05/31 03:29:18;;;;;;;13.98;8.98;;;9.00;99.90;;;;;;5055082;28;20063;-79
2022/05/31 03:31:44;;;;;;;15.50;9.73;;;9.00;99.90;;;;;;5054877;28;20037;-79
2022/05/31 03:34:09;;;;;;;14.38;9.88;;;9.00;99.90;;;;;;5056533;28;20049;-79
2022/05/31 03:36:35;;;;;;;13.18;8.80;;;9.00;99.90;;;;;;5055984;28;20040;-78
2022/05/31 03:39:01;;;;;;;13.70;8.98;;;9.00;99.90;;;;;;5054763;28;20049;-79
2022/05/31 03:41:27;;;;;;;14.75;9.27;;;9.00;99.90;;;;;;5054928;28;20047;-79
2022/05/31 03:43:53;;;;;;;14.30;9.77;;;9.00;99.90;;;;;;5056009;28;20459;-79
2022/05/31 03:46:19;;;;;;;13.02;9.35;;;9.00;99.90;;;;;;5056084;28;20094;-79
2022/05/31 03:48:44;;;;;;;13.25;9.13;;;9.00;99.90;;;;;;5054551;28;20053;-79
2022/05/31 03:51:11;;;;;;;13.25;8.82;;;9.00;99.90;;;;;;5055844;28;20052;-79
2022/05/31 03:53:38;;;;;;;13.18;9.13;;;9.10;99.90;;;;;;5056039;28;20135;-79
2022/05/31 03:56:07;;;;;;;16.13;9.57;;;9.10;99.90;;;;;;5054183;28;20392;-79
2022/05/31 03:58:32;;;;;;;13.35;9.43;;;9.10;99.90;;;;;;5055559;28;20045;-80
2022/05/31 04:00:59;;;;;;;13.68;9.88;;;9.10;99.90;;;;;;5054333;28;20053;-79
2022/05/31 04:03:25;;;;;;;14.93;10.15;;;9.10;99.90;;;;;;5054248;28;20057;-79
2022/05/31 04:05:51;;;;;;;13.52;9.70;;;9.10;99.90;;;;;;5054451;28;20455;-80
2022/05/31 04:08:19;;;;;;;15.38;9.63;;;9.10;99.90;;;;;;5054130;28;20073;-79
2022/05/31 04:10:45;;;;;;;12.90;10.27;;;9.20;99.90;;;;;;5055646;28;20056;-79
2022/05/31 04:13:12;;;;;;;11.07;8.70;;;9.20;99.90;;;;;;5055561;28;20066;-79
2022/05/31 04:15:39;;;;;;;14.50;9.75;;;9.20;99.90;;;;;;5054048;28;20128;-79
2022/05/31 04:18:05;;;;;;;15.75;9.80;;;9.20;99.90;;;;;;5054326;28;20165;-79
2022/05/31 04:20:33;;;;;;;11.82;8.80;;;9.30;99.90;;;;;;5055484;28;20033;-79
2022/05/31 04:25:44;;;;;;;14.63;10.35;;;9.30;99.90;;;;;;5055082;28;20068;-80
2022/05/31 04:28:10;;;;;;;14.07;10.13;;;9.40;99.90;;;;;;5053856;28;20049;-79
2022/05/31 04:30:37;;;;;;;13.65;10.15;;;9.40;99.90;;;;;;5055319;28;20400;-80
2022/05/31 04:33:03;;;;;;;14.27;9.63;;;9.40;99.90;;;;;;5053971;28;20044;-80
2022/05/31 04:35:29;;;;;;;13.93;9.98;;;9.40;99.90;;;;;;5055106;28;20044;-80
2022/05/31 04:37:55;;;;;;;13.52;9.70;;;9.50;99.90;;;;;;5055147;28;20045;-80
2022/05/31 04:40:20;;;;;;;14.25;9.57;;;9.50;99.90;;;;;;5055019;28;20112;-80
2022/05/31 04:42:46;;;;;;;12.43;8.98;;;9.60;99.90;;;;;;5055054;28;20045;-80
2022/05/31 04:45:12;;;;;;;11.80;8.50;;;9.60;99.90;;;;;;5055007;28;20040;-80
2022/05/31 04:47:38;;;;;;;12.45;8.65;;;9.50;99.90;;;;;;5054910;28;20045;-80
2022/05/31 04:50:04;;;;;;;13.40;9.13;;;9.60;99.90;;;;;;5053450;28;20463;-79
2022/05/31 04:52:31;;;;;;;12.27;8.93;;;9.60;99.90;;;;;;5054532;28;20084;-79
2022/05/31 04:54:56;;;;;;;12.20;8.93;;;9.60;99.90;;;;;;5054516;28;20041;-79
2022/05/31 04:57:22;;;;;;;13.18;8.63;;;9.70;99.90;;;;;;5053304;28;20036;-80
2022/05/31 04:59:47;;;;;;;12.07;8.77;;;9.70;99.90;;;;;;5054910;28;20045;-80
2022/05/31 05:02:13;;;;;;;15.27;9.10;;;9.70;99.90;;;;;;5054689;28;20048;-78
2022/05/31 05:04:39;;;;;;;12.20;8.70;;;9.70;99.90;;;;;;5054609;28;20392;-79
2022/05/31 05:07:05;;;;;;;13.65;8.63;;;9.80;99.90;;;;;;5053753;28;20075;-79
2022/05/31 05:09:30;;;;;;;14.43;9.63;;;9.80;99.90;;;;;;5054070;28;20045;-79
2022/05/31 05:11:56;;;;;;;9.77;7.75;;;9.80;99.90;;;;;;5053237;28;20537;-79
2022/05/31 05:14:22;;;;;;;13.15;8.52;;;9.80;99.90;;;;;;5053013;28;20059;-80
2022/05/31 05:16:48;;;;;;;11.80;8.18;;;9.90;99.90;;;;;;5054227;28;20115;-80
2022/05/31 05:19:16;;;;;;;12.65;8.45;;;9.90;99.90;;;;;;5053199;28;20180;-79
2022/05/31 05:21:42;;;;;;;12.60;9.05;;;10.00;99.90;;;;;;5054164;28;20052;-79
2022/05/31 05:24:08;;;;;;;10.70;7.88;;;10.00;99.90;;;;;;5052710;28;20075;-80
2022/05/31 05:26:35;;;;;;;10.50;7.20;;;10.00;99.90;;;;;;5054156;28;20045;-79
2022/05/31 05:31:45;;;;;;;11.52;6.90;;;10.10;99.90;;;;;;5054179;28;20044;-79
2022/05/31 05:34:11;;;;;;;11.13;6.65;;;10.20;99.90;;;;;;5054124;28;20044;-80
2022/05/31 05:36:36;;;;;;;10.30;6.97;;;10.20;99.90;;;;;;5052709;28;20045;-80
2022/05/31 05:39:03;;;;;;;11.23;8.20;;;10.20;99.90;;;;;;5053953;28;20045;-77
2022/05/31 05:41:30;;;;;;;10.65;6.80;;;10.30;99.90;;;;;;5054007;28;20139;-78
2022/05/31 05:43:56;;;;;;;11.30;8.07;;;10.30;99.90;;;;;;5053971;28;20145;-78
2022/05/31 05:46:27;;;;;;;11.38;6.95;;;10.40;99.90;;;;;;5053999;28;20113;-78
2022/05/31 05:48:53;;;;;;;12.15;7.13;;;10.40;99.90;;;;;;5052241;28;20044;-78
2022/05/31 05:51:23;;;;;;;12.20;7.72;;;10.40;99.90;;;;;;5053568;28;20044;-78
2022/05/31 05:53:49;;;;;;;14.40;8.23;;;10.40;99.90;;;;;;5053813;28;20067;-78
2022/05/31 05:56:15;;;;;;;10.65;7.07;;;10.50;99.90;;;;;;5052352;28;20455;-79
2022/05/31 05:58:42;;;;;;;10.35;6.43;;;10.50;99.90;;;;;;5052367;28;20480;-79
2022/05/31 06:01:16;;;;;;;10.00;7.05;;;10.50;99.90;;;;;;5052149;28;20515;-80
2022/05/31 06:03:47;;;;;;;12.77;7.72;;;10.50;99.90;;;;;;5052281;28;20041;-80
2022/05/31 06:06:15;;;;;;;11.88;6.43;;;10.60;99.90;;;;;;5053459;28;20476;-79
2022/05/31 06:09:18;;;;;;;10.20;6.70;;;10.60;99.90;;;;;;5052061;28;20149;-79
2022/05/31 06:11:56;;;;;;;10.48;6.68;;;10.60;99.90;;;;;;5031390;28;20037;-79
2022/05/31 06:14:42;;;;;;;13.82;7.60;;;10.60;99.90;;;;;;5047916;28;20061;-79
2022/05/31 06:17:16;;;;;;;12.68;7.70;;;10.60;99.90;;;;;;5046705;28;20132;-81
2022/05/31 06:19:42;;;;;;;10.43;6.80;;;10.50;99.90;;;;;;5034887;28;20041;-78
2022/05/31 06:22:08;;;;;;;10.10;6.63;;;10.60;99.90;;;;;;5033189;28;20041;-78
2022/05/31 06:24:38;;;;;;;11.00;7.75;;;10.60;99.90;;;;;;5033107;28;20041;-78
2022/05/31 06:27:04;;;;;;;16.35;7.15;;;10.60;99.90;;;;;;5031774;28;20052;-78
2022/05/31 06:29:30;;;;;;;12.52;6.80;;;10.60;99.90;;;;;;5031834;28;20053;-78
2022/05/31 06:31:55;;;;;;;10.65;6.65;;;10.70;99.90;;;;;;5031828;28;20052;-80
2022/05/31 06:34:23;;;;;;;9.88;6.15;;;10.70;99.90;;;;;;5032970;28;20052;-79
2022/05/31 06:36:49;;;;;;;10.32;7.03;;;10.70;99.90;;;;;;5031781;28;20490;-79
2022/05/31 06:39:15;;;;;;;10.95;6.57;;;10.70;99.90;;;;;;5033154;28;20084;-78
2022/05/31 06:41:41;;;;;;;12.70;6.30;;;10.70;99.90;;;;;;5031702;28;20396;-78
2022/05/31 06:44:10;;;;;;;9.07;7.03;;;10.70;99.90;;;;;;5033112;28;20044;-79
2022/05/31 06:46:35;;;;;;;10.30;6.88;;;10.80;99.90;;;;;;5033282;28;20045;-79
2022/05/31 06:49:01;;;;;;;13.07;7.40;;;10.80;99.90;;;;;;5031707;28;20129;-79
2022/05/31 06:57:00;;;;;;;10.30;6.82;;;10.90;99.90;;;;;;5031950;28;20053;-79
2022/05/31 06:59:26;;;;;;;11.02;7.15;;;10.90;99.90;;;;;;5031812;28;20049;-78
2022/05/31 07:01:53;;;;;;;11.50;7.85;;;11.00;99.90;;;;;;5031738;28;20038;-78
2022/05/31 07:04:19;;;;;;;10.38;7.30;;;11.00;99.90;;;;;;5032903;28;20037;-79
2022/05/31 07:06:45;;;;;;;11.82;7.82;;;11.20;99.90;;;;;;5031945;28;20068;-78
2022/05/31 07:09:12;;;;;;;13.13;7.63;;;11.20;99.90;;;;;;5033189;28;20477;-79
2022/05/31 07:11:38;;;;;;;14.20;8.95;;;11.30;99.90;;;;;;5032863;28;20516;-78
2022/05/31 07:14:04;;;;;;;14.25;8.13;;;11.40;99.90;;;;;;5031589;28;20607;-80
2022/05/31 07:16:30;;;;;;;13.88;8.38;;;11.50;99.90;;;;;;5033073;28;20136;-79
2022/05/31 07:18:56;;;;;;;14.25;8.27;;;11.60;99.90;;;;;;5031767;28;20088;-79
2022/05/31 07:21:23;;;;;;;13.70;8.48;;;11.70;99.90;;;;;;5032911;28;20100;-79
2022/05/31 07:23:48;;;;;;;12.05;7.97;;;11.80;99.90;;;;;;5032957;28;20033;-79
2022/05/31 07:26:14;;;;;;;10.25;8.13;;;11.80;99.90;;;;;;5031635;28;20046;-78
2022/05/31 07:28:40;;;;;;;12.27;7.90;;;11.90;99.90;;;;;;5032886;28;20045;-79
2022/05/31 07:31:07;;;;;;;10.35;7.25;;;11.90;99.90;;;;;;5034039;28;20124;-79
2022/05/31 07:33:33;;;;;;;13.20;8.40;;;11.90;99.90;;;;;;5035271;28;20370;-79
2022/05/31 07:36:01;;;;;;;10.82;8.10;;;12.00;99.90;;;;;;5036463;28;20045;-79
2022/05/31 07:38:27;;;;;;;11.05;7.75;;;12.00;99.90;;;;;;5036328;28;20045;-79
2022/05/31 07:40:53;;;;;;;11.57;7.97;;;11.90;99.90;;;;;;5036333;28;20058;-79
2022/05/31 07:43:19;;;;;;;11.07;7.53;;;11.90;99.90;;;;;;5034867;28;20045;-79
2022/05/31 07:45:45;;;;;;;10.88;8.13;;;11.90;99.90;;;;;;5036232;28;20091;-79
2022/05/31 07:48:11;;;;;;;12.10;8.15;;;11.90;99.90;;;;;;5035934;28;20480;-79
2022/05/31 07:50:37;;;;;;;12.23;7.95;;;11.90;99.90;;;;;;5036190;28;20037;-79
2022/05/31 07:53:03;;;;;;;11.98;7.90;;;11.90;99.90;;;;;;5035869;28;20089;-79
2022/05/31 07:55:32;;;;;;;12.98;8.10;;;11.90;99.90;;;;;;5034818;28;20084;-79
2022/05/31 08:00:42;;;;;;;10.68;7.90;;;11.90;99.90;;;;;;5036035;28;20048;-79
2022/05/31 08:03:08;;;;;;;10.88;7.70;;;11.90;99.90;;;;;;5035682;28;20045;-79
2022/05/31 08:05:38;;;;;;;11.27;8.20;;;11.90;99.90;;;;;;5035743;28;20046;-79
2022/05/31 08:08:05;;;;;;;11.48;8.27;;;11.90;99.90;;;;;;5035586;28;20112;-79
2022/05/31 08:10:31;;;;;;;13.55;8.93;;;11.90;99.90;;;;;;5035524;28;20065;-79
2022/05/31 08:12:56;;;;;;;13.73;10.10;;;11.90;99.90;;;;;;5035400;28;20073;-79
2022/05/31 08:15:22;;;;;;;15.50;9.05;;;11.90;99.90;;;;;;5035733;28;20548;-79
2022/05/31 08:17:47;;;;;;;12.20;8.85;;;11.90;99.90;;;;;;5034386;28;20046;-79
2022/05/31 08:20:16;;;;;;;13.85;8.88;;;11.90;99.90;;;;;;5035336;28;20046;-80
2022/05/31 08:22:44;;;;;;;13.75;9.05;;;11.90;99.90;;;;;;5035552;28;20042;-79
2022/05/31 08:25:10;;;;;;;16.05;10.13;;;11.80;99.90;;;;;;5035248;28;20120;-79
2022/05/31 08:27:36;;;;;;;14.63;9.65;;;11.80;99.90;;;;;;5035301;28;20049;-79
2022/05/31 08:30:04;;;;;;;16.20;10.32;;;11.90;99.90;;;;;;5034268;28;20504;-79
2022/05/31 08:32:31;;;;;;;12.65;8.35;;;11.90;99.90;;;;;;5033794;28;20045;-79
2022/05/31 08:34:56;;;;;;;14.40;9.05;;;11.90;99.90;;;;;;5034083;28;20055;-79
2022/05/31 08:37:22;;;;;;;14.93;9.55;;;11.80;99.90;;;;;;5033905;28;20049;-79
2022/05/31 08:39:48;;;;;;;12.63;8.82;;;11.90;99.90;;;;;;5035209;28;20045;-79
2022/05/31 08:42:28;;;;;;;13.15;9.48;;;11.80;99.90;;;;;;5035007;28;20041;-79
2022/05/31 08:45:09;;;;;;;14.25;9.23;;;11.90;99.90;;;;;;5035258;28;20037;-79
2022/05/31 08:47:46;;;;;;;15.77;9.88;;;11.90;99.90;;;;;;5034981;28;20041;-79
2022/05/31 08:53:30;;;;;;;18.15;8.95;;;12.10;99.90;;;;;;5034685;28;20064;-79
2022/05/31 08:58:58;;;;;;;15.80;9.43;;;12.30;99.90;;;;;;5034578;28;20080;-78
2022/05/31 09:01:28;;;;;;;15.18;9.32;;;12.50;99.90;;;;;;5033602;28;20096;-80
2022/05/31 09:03:59;;;;;;;12.50;9.23;;;12.50;99.90;;;;;;5034720;28;20045;-79
2022/05/31 09:06:30;;;;;;;13.70;8.88;;;12.60;99.90;;;;;;5034736;28;20052;-79
2022/05/31 09:09:04;;;;;;;16.85;9.52;;;12.70;99.90;;;;;;5034532;28;20120;-79
2022/05/31 09:11:41;;;;;;;15.13;8.60;;;12.80;99.90;;;;;;5033380;28;20045;-79
2022/05/31 09:14:42;;;;;;;13.63;9.50;;;12.90;99.90;;;;;;5033335;28;20045;-79
2022/05/31 09:17:21;;;;;;;15.35;9.85;;;13.00;99.90;;;;;;5035366;28;20041;-79
2022/05/31 09:20:07;;;;;;;17.52;9.90;;;13.10;99.90;;;;;;5033154;28;20057;-79
2022/05/31 09:22:33;;;;;;;14.23;9.95;;;13.20;99.90;;;;;;5032675;28;20049;-79
2022/05/31 09:25:00;;;;;;;12.73;9.48;;;13.20;99.90;;;;;;5032934;28;20099;-79
2022/05/31 09:27:43;;;;;;;14.13;9.85;;;13.40;99.90;;;;;;5033122;28;20115;-79
2022/05/31 09:30:20;;;;;;;17.90;11.00;;;13.50;99.90;;;;;;5034354;28;20055;-79
2022/05/31 09:33:07;;;;;;;14.15;10.00;;;13.70;99.90;;;;;;5034351;28;20041;-79
2022/05/31 09:35:42;;;;;;;16.52;10.30;;;14.00;99.90;;;;;;5034080;28;20049;-79
2022/05/31 09:38:26;;;;;;;15.13;10.93;;;14.40;99.90;;;;;;5033038;28;20107;-79
2022/05/31 09:41:06;;;;;;;14.63;10.57;;;14.70;99.90;;;;;;5033980;28;20045;-79
2022/05/31 09:43:52;;;;;;;16.55;10.35;;;15.00;99.90;;;;;;5033861;28;20071;-78
2022/05/31 09:46:27;;;;;;;20.20;10.50;;;15.00;99.90;;;;;;5032759;28;20401;-79
2022/05/31 09:48:53;;;;;;;12.80;10.05;;;15.10;99.90;;;;;;5032420;28;20053;-79
2022/05/31 09:51:32;;;;;;;15.60;10.45;;;15.50;99.90;;;;;;5033726;28;20060;-79
2022/05/31 09:59:29;;;;;;;15.40;10.85;;;16.20;99.90;;;;;;5032322;28;20409;-79
2022/05/31 10:02:02;;;;;;;15.40;10.57;;;16.10;99.90;;;;;;5033590;28;20055;-79
2022/05/31 10:04:31;;;;;;;17.35;11.43;;;15.90;99.90;;;;;;5032877;28;20052;-79
2022/05/31 10:07:08;;;;;;;17.83;11.48;;;15.70;99.90;;;;;;5033355;28;20460;-79
2022/05/31 10:09:36;;;;;;;16.48;11.48;;;15.90;99.90;;;;;;5033735;28;20049;-79
2022/05/31 10:12:11;;;;;;;16.20;11.50;;;16.00;99.90;;;;;;5033675;28;20048;-79
2022/05/31 10:14:40;;;;;;;21.10;11.57;;;16.10;99.90;;;;;;5032494;28;20052;-79
2022/05/31 10:17:32;;;;;;;13.80;10.27;;;16.20;99.90;;;;;;5033556;28;20064;-79
2022/05/31 10:20:20;;;;;;;18.23;11.73;;;16.30;99.90;;;;;;5032583;28;20539;-80
2022/05/31 10:23:00;;;;;;;15.73;11.20;;;16.50;99.90;;;;;;5032413;28;20504;-79
2022/05/31 10:25:33;;;;;;;18.60;11.95;;;16.30;99.90;;;;;;5033591;28;20086;-80
2022/05/31 10:28:03;;;;;;;16.83;10.65;;;16.30;99.90;;;;;;5033550;28;20049;-81
2022/05/31 10:30:31;;;;;;;18.38;10.77;;;16.50;99.90;;;;;;5032378;28;20069;-79
2022/05/31 10:33:32;;;;;;;16.38;10.45;;;16.90;99.90;;;;;;5032032;28;20132;-79
2022/05/31 10:36:21;;;;;;;16.75;11.15;;;16.80;99.90;;;;;;4975694;28;20130;-79
2022/05/31 10:38:48;;;;;;;18.08;11.48;;;16.90;99.90;;;;;;5029618;28;20057;-79
2022/05/31 10:41:23;;;;;;;15.93;10.68;;;16.90;99.90;;;;;;5033141;28;20386;-79
2022/05/31 10:43:58;;;;;;;16.15;10.02;;;17.00;99.90;;;;;;5033336;28;20045;-79
2022/05/31 10:46:23;;;;;;;15.73;11.15;;;17.20;99.90;;;;;;5033324;28;20045;-79
2022/05/31 10:48:52;;;;;;;17.15;10.35;;;16.70;99.90;;;;;;5033000;28;20243;-79
2022/05/31 10:51:38;;;;;;;16.20;11.20;;;16.50;99.90;;;;;;5032795;28;20452;-79
2022/05/31 10:54:22;;;;;;;16.83;10.95;;;16.40;99.90;;;;;;5032177;28;20140;-79
2022/05/31 10:57:08;;;;;;;21.48;10.85;;;16.40;99.90;;;;;;5033117;28;20547;-80
2022/05/31 10:59:41;;;;;;;21.08;10.77;;;16.30;99.90;;;;;;5032903;28;20050;-80
2022/05/31 11:02:50;;;;;;;20.10;10.35;;;16.10;99.90;;;;;;5031567;28;20052;-80
2022/05/31 11:05:22;;;;;;;20.65;10.60;;;16.10;99.90;;;;;;5033190;28;20049;-80
2022/05/31 11:14:09;;;;;;;18.65;10.07;;;15.50;99.90;;;;;;5035369;28;20159;-79
2022/05/31 11:17:07;;;;;;;20.20;10.52;;;15.40;99.90;;;;;;5035568;28;20083;-79
2022/05/31 11:20:02;;;;;;;18.15;10.57;;;15.40;99.90;;;;;;5035721;28;20488;-80
2022/05/31 11:23:03;;;;;;;16.33;9.85;;;15.50;99.90;;;;;;5036680;28;20128;-79
2022/05/31 11:25:38;;;;;;;16.92;9.50;;;15.60;99.90;;;;;;5043639;28;20571;-79
2022/05/31 11:28:25;;;;;;;19.80;10.07;;;15.70;99.90;;;;;;5035264;28;20115;-79
2022/05/31 11:30:54;;;;;;;15.98;8.05;;;15.90;99.90;;;;;;5036522;28;20045;-79
2022/05/31 11:33:38;;;;;;;17.63;9.55;;;15.90;99.90;;;;;;5036504;28;20049;-79
2022/05/31 11:36:23;;;;;;;20.92;10.23;;;16.00;99.90;;;;;;5035207;28;20061;-79
2022/05/31 11:38:58;;;;;;;13.30;8.50;;;15.90;99.90;;;;;;5034960;28;20060;-79
2022/05/31 11:41:47;;;;;;;18.90;9.75;;;16.40;99.90;;;;;;5035156;28;20045;-79
2022/05/31 11:44:50;;;;;;;14.30;9.00;;;16.50;99.90;;;;;;5034896;28;20049;-79
2022/05/31 11:47:21;;;;;;;16.00;8.70;;;16.30;99.90;;;;;;5034926;28;20125;-80
2022/05/31 11:49:56;;;;;;;16.83;8.48;;;16.70;99.90;;;;;;5035039;28;20053;-80
2022/05/31 11:52:53;;;;;;;22.20;13.82;;;16.90;99.90;;;;;;5035743;28;20054;-79
2022/05/31 11:55:42;;;;;;;21.00;12.05;;;17.10;99.90;;;;;;5034660;28;20508;-80
2022/05/31 11:58:15;;;;;;;23.77;13.25;;;17.40;99.90;;;;;;5034611;28;20389;-80
2022/05/31 12:01:17;;;;;;;20.25;12.88;;;17.20;99.90;;;;;;5034583;28;20117;-80
2022/05/31 12:04:11;;;;;;;18.30;12.32;;;17.20;99.90;;;;;;5035996;28;20074;-80
2022/05/31 12:06:42;;;;;;;20.42;12.48;;;17.10;99.90;;;;;;5036196;28;20428;-80
2022/05/31 12:09:43;;;;;;;18.15;12.02;;;17.00;99.90;;;;;;5034414;28;20049;-80
2022/05/31 12:12:18;;;;;;;22.08;13.18;;;16.90;99.90;;;;;;5031339;28;20060;-80
2022/05/31 12:14:48;;;;;;;25.48;14.40;;;17.00;99.90;;;;;;5035780;28;20141;-80
2022/05/31 12:17:16;;;;;;;17.80;12.60;;;16.80;99.90;;;;;;5034954;28;20489;-80
2022/05/31 12:19:56;;;;;;;18.85;11.80;;;16.70;99.90;;;;;;5034458;28;20041;-80
2022/05/31 12:22:28;;;;;;;21.63;12.10;;;16.70;99.90;;;;;;5034095;28;20045;-79
2022/05/31 12:25:25;;;;;;;15.82;11.13;;;16.40;99.90;;;;;;5035288;28;20048;-79
2022/05/31 12:28:09;;;;;;;21.35;12.93;;;16.50;99.90;;;;;;5034616;28;20057;-79
2022/05/31 12:30:56;;;;;;;19.20;12.45;;;16.30;99.90;;;;;;5034190;28;20045;-79
2022/05/31 12:33:27;;;;;;;21.70;11.85;;;16.20;99.90;;;;;;5035111;28;20152;-80
2022/05/31 12:35:56;;;;;;;21.83;12.88;;;16.20;99.90;;;;;;5034174;28;20120;-79
2022/05/31 12:38:21;;;;;;;21.88;12.18;;;16.20;99.90;;;;;;5035065;28;20046;-79
2022/05/31 12:40:51;;;;;;;17.48;11.70;;;16.00;99.90;;;;;;5035275;28;20124;-79
2022/05/31 12:43:34;;;;;;;20.00;11.40;;;16.10;99.90;;;;;;5035246;28;20056;-82
2022/05/31 12:46:20;;;;;;;21.23;11.82;;;16.10;99.90;;;;;;5033962;28;20057;-82
2022/05/31 12:48:58;;;;;;;20.05;13.77;;;16.20;99.90;;;;;;5033607;28;20497;-85
2022/05/31 12:51:24;;;;;;;21.00;11.95;;;16.10;99.90;;;;;;5033612;28;20068;-80
2022/05/31 12:53:50;;;;;;;21.05;11.73;;;16.20;99.90;;;;;;5033520;28;20493;-79
2022/05/31 12:56:55;;;;;;;21.90;11.73;;;16.10;99.90;;;;;;5033401;28;20041;-79
2022/05/31 12:59:41;;;;;;;21.20;11.60;;;16.10;99.90;;;;;;5004065;28;20061;-79
2022/05/31 13:02:37;;;;;;;21.83;13.07;;;16.20;99.90;;;;;;5034941;28;20112;-79
2022/05/31 13:05:24;;;;;;;21.80;11.63;;;16.10;99.90;;;;;;5033603;28;20128;-77
2022/05/31 13:08:13;;;;;;;19.33;11.80;;;15.80;99.90;;;;;;5033311;28;20088;-78
2022/05/31 13:21:56;;;;;;;18.23;9.35;;;15.30;99.90;;;;;;5034426;28;20048;-79
2022/05/31 13:24:24;;;;;;;23.30;11.18;;;15.30;99.90;;;;;;5034364;28;20048;-78
2022/05/31 13:26:51;;;;;;;24.50;11.35;;;15.20;99.90;;;;;;5033285;28;20507;-79
2022/05/31 13:29:20;;;;;;;18.67;10.07;;;15.10;99.90;;;;;;5033611;28;20038;-79
2022/05/31 13:31:55;;;;;;;18.23;9.70;;;15.20;99.90;;;;;;5032798;28;20049;-79
2022/05/31 13:34:28;;;;;;;17.58;9.68;;;15.10;99.90;;;;;;5032758;28;20100;-79
2022/05/31 13:36:55;;;;;;;21.55;10.82;;;14.90;99.90;;;;;;5032773;28;20060;-79
2022/05/31 13:39:22;;;;;;;23.77;10.40;;;14.80;99.90;;;;;;5034076;28;20045;-79
2022/05/31 13:41:53;;;;;;;22.60;10.45;;;14.80;99.90;;;;;;5043682;28;20049;-79
2022/05/31 13:44:22;;;;;;;20.13;11.30;;;14.80;99.90;;;;;;5054019;28;20049;-81